Kezdőlap
METAR-TAF:

METAR-TAF

Repülőterek :

Casement Aerodrome

Dublin, Írország

földrajzi szélesség: 53-18-06N, földrajzi hosszúság: 6-27-04W, magasság: 97 m

Jelenlegi meteorológiai megfigyelések

A jelentés 55 perccel ezelõtt készült, 17:00 UTC
Északi szél 8 kt, nyugat-északnyugati és keleti között változik
Hőmérséklet 14°C
Páratartalom 58%
Légköri nyomás 1023 hPa
Látótávolság 10 km, vagy több
Kevés felhő 3000 lábon
Szórványos felhőzet 3500 lábon

METAR: EIME 191700Z 01008KT 300V080 9999 FEW030 SCT035 14/06 Q1023

Idő: 18:55 (17:55 UTC)

Előrejelzés

A jelentés 55 perccel ezelõtt készült, 17:00 UTC
Az előrejelzés 19-én 18 óra UTC és 20-én 03 óra UTC között érvényes
Észak-északkeleti szél 7 kt
Látótávolság 10 km, vagy több
Kevés felhő 2500 lábon
Szórványos felhőzet 3500 lábon

TAF: EIME 191700Z 1918/2003 02007KT 9999 FEW025 SCT035

Meteorológiai megfigyelések és előrejelzések több, mint 4000 repülőtéren (METAR és TAF jelentéseket).

A térképen piros és sárga pontok jelzik az elérhető meteorológiai állomásokat.

Mozgassa az egeret a pont fölött, hogy megjelenjen az állomás neve.

Azután kattintson az időjárási megfigyelések és előrejelzések megtekintéséhez.

A térkép megváltoztatása: kattintson a fekete keresztel jelölt zöld gombra ráközelítéshez, a vonallal jelölt zöld gombra távolításhoz, vagy a zöld nyilakra a szomszédos térképek eléréséhez.


METAR-TAF: